createdAt,value
2018-03-22T11:55:35.282Z,8.10
2018-03-22T11:58:02.917Z,8.30
2018-03-22T12:00:30.582Z,8.20
2018-03-22T12:02:58.184Z,8.20
2018-03-22T12:05:25.801Z,8.00
2018-03-22T12:07:53.434Z,7.90
2018-03-22T12:10:21.113Z,7.70
2018-03-22T12:12:48.734Z,7.50
2018-03-22T12:15:17.160Z,7.50
2018-03-22T12:17:44.787Z,7.40
2018-03-22T12:20:12.373Z,7.60
2018-03-22T12:22:40.174Z,7.90
2018-03-22T12:25:07.832Z,8.00
2018-03-22T12:27:35.430Z,8.40
2018-03-22T12:30:03.890Z,8.90
2018-03-22T12:32:31.487Z,8.90
2018-03-22T12:34:59.133Z,8.90
2018-03-22T12:37:26.777Z,8.80
2018-03-22T12:39:54.458Z,9.10
2018-03-22T12:42:22.831Z,9.30
2018-03-22T12:44:50.489Z,9.30
2018-03-22T12:47:18.198Z,8.90
2018-03-22T12:49:45.809Z,8.40
2018-03-22T12:52:13.450Z,8.40
2018-03-22T12:54:41.093Z,8.60
2018-03-22T12:57:08.733Z,8.50
2018-03-22T12:59:36.359Z,8.50
2018-03-22T13:02:04.889Z,9.00
2018-03-22T13:04:32.472Z,9.00
2018-03-22T13:07:00.066Z,9.00
2018-03-22T13:09:28.531Z,8.90
2018-03-22T13:11:56.194Z,8.90
2018-03-22T13:14:23.814Z,8.90
2018-03-22T13:16:51.455Z,8.90
2018-03-22T13:19:19.116Z,9.10
2018-03-22T13:21:46.782Z,8.80
2018-03-22T13:24:14.463Z,8.90
2018-03-22T13:26:42.041Z,8.90
2018-03-22T13:29:09.718Z,8.80
2018-03-22T13:31:37.342Z,8.30
2018-03-22T13:34:04.987Z,8.50
2018-03-22T13:36:32.619Z,8.50
2018-03-22T13:39:00.254Z,8.30
2018-03-22T13:41:27.914Z,8.20
2018-03-22T13:43:55.544Z,8.30
2018-03-22T13:46:23.187Z,8.40
2018-03-22T13:48:51.666Z,8.30
2018-03-22T13:51:20.052Z,8.60
2018-03-22T13:53:47.724Z,8.60
2018-03-22T13:56:15.335Z,8.90
2018-03-22T13:58:43.068Z,9.00
2018-03-22T14:01:10.734Z,9.10
2018-03-22T14:03:38.337Z,9.30
2018-03-22T14:06:06.007Z,9.20
2018-03-22T14:08:33.636Z,8.80
2018-03-22T14:11:01.247Z,8.60
2018-03-22T14:13:28.904Z,8.30
2018-03-22T14:15:56.591Z,8.30
2018-03-22T14:18:24.236Z,8.00
2018-03-22T14:20:51.888Z,8.00
2018-03-22T14:23:19.589Z,7.80
2018-03-22T14:25:47.293Z,7.70
2018-03-22T14:28:14.889Z,7.50
2018-03-22T14:30:42.564Z,7.50
2018-03-22T14:33:10.173Z,7.20
2018-03-22T14:35:37.789Z,7.10
2018-03-22T14:38:05.407Z,7.20
2018-03-22T14:40:33.043Z,7.20
2018-03-22T14:43:00.676Z,7.10
2018-03-22T14:45:28.312Z,6.90
2018-03-22T14:47:56.753Z,6.40
2018-03-22T14:50:24.348Z,6.40
2018-03-22T14:52:52.783Z,6.20
2018-03-22T14:55:20.411Z,6.20
2018-03-22T14:57:48.065Z,6.10
2018-03-22T15:00:15.726Z,6.00
2018-03-22T15:02:44.055Z,6.00
2018-03-22T15:05:11.709Z,5.90
2018-03-22T15:07:39.321Z,5.90
2018-03-22T15:10:07.693Z,5.70
2018-03-22T15:12:37.147Z,5.60
2018-03-22T15:15:04.839Z,5.60
2018-03-22T15:17:32.478Z,5.50
2018-03-22T15:20:00.122Z,5.40
2018-03-22T15:22:27.738Z,5.40
2018-03-22T15:24:55.413Z,5.40
2018-03-22T15:27:23.022Z,5.50
2018-03-22T15:29:50.724Z,5.40
2018-03-22T15:32:18.338Z,5.40
2018-03-22T15:34:45.992Z,5.40
2018-03-22T15:37:13.575Z,5.30
2018-03-22T15:39:41.189Z,5.40
2018-03-22T15:42:09.612Z,5.30
2018-03-22T15:44:37.189Z,5.30
2018-03-22T15:47:04.921Z,5.30
2018-03-22T15:49:32.523Z,5.40
2018-03-22T15:52:00.173Z,5.30
2018-03-22T15:54:27.794Z,5.20
2018-03-22T15:56:55.485Z,5.20
2018-03-22T15:59:27.891Z,5.20
2018-03-22T16:01:55.541Z,5.30
2018-03-22T16:04:23.194Z,5.30
2018-03-22T16:06:50.818Z,5.20
2018-03-22T16:09:18.669Z,5.20
2018-03-22T16:11:47.036Z,5.20
2018-03-22T16:14:15.461Z,5.20
2018-03-22T16:16:43.060Z,5.20
2018-03-22T16:19:12.016Z,5.30
2018-03-22T16:21:39.625Z,5.30
2018-03-22T16:24:07.219Z,5.30
2018-03-22T16:26:34.870Z,5.30
2018-03-22T16:29:02.546Z,5.30
2018-03-22T16:31:30.176Z,5.30
2018-03-22T16:33:57.866Z,5.30
2018-03-22T16:36:25.463Z,5.30
2018-03-22T16:38:53.048Z,5.30
2018-03-22T16:41:20.729Z,5.30
2018-03-22T16:43:49.104Z,5.30
2018-03-22T16:46:17.489Z,5.30
2018-03-22T16:48:45.347Z,5.30
2018-03-22T16:51:13.022Z,5.20
2018-03-22T16:53:40.611Z,5.20
2018-03-22T16:56:08.230Z,5.10
2018-03-22T16:58:35.886Z,5.00
2018-03-22T17:01:03.507Z,5.00
2018-03-22T17:03:31.158Z,5.00
2018-03-22T17:05:58.881Z,4.90
2018-03-22T17:08:26.494Z,4.90
2018-03-22T17:10:55.007Z,4.90
2018-03-22T17:13:22.640Z,4.90
2018-03-22T17:15:50.295Z,4.90
2018-03-22T17:18:17.978Z,4.80
2018-03-22T17:20:45.744Z,4.70
2018-03-22T17:23:13.372Z,4.60
2018-03-22T17:25:40.990Z,4.40
2018-03-22T17:28:08.545Z,4.40
2018-03-22T17:30:36.212Z,4.20
2018-03-22T17:33:03.834Z,4.20
2018-03-22T17:35:31.467Z,4.10
2018-03-22T17:37:59.788Z,3.80
2018-03-22T17:40:27.432Z,3.80
2018-03-22T17:42:55.080Z,3.80
2018-03-22T17:45:22.729Z,3.70
2018-03-22T17:47:50.385Z,3.70
2018-03-22T17:50:18.762Z,3.60
2018-03-22T17:52:46.374Z,3.60
2018-03-22T17:55:13.992Z,3.60
2018-03-22T17:57:41.609Z,3.60
2018-03-22T18:00:09.178Z,3.60
2018-03-22T18:02:36.918Z,3.60
2018-03-22T18:05:04.573Z,3.60
2018-03-22T18:07:32.273Z,3.50
2018-03-22T18:09:59.870Z,3.40
2018-03-22T18:12:27.509Z,3.30
2018-03-22T18:14:55.106Z,3.30
2018-03-22T18:17:22.727Z,3.30
2018-03-22T18:19:50.344Z,3.30
2018-03-22T18:22:17.905Z,3.30
2018-03-22T18:24:45.523Z,3.30
2018-03-22T18:27:13.252Z,3.30
2018-03-22T18:29:40.903Z,3.20
2018-03-22T18:32:08.555Z,3.00
2018-03-22T18:34:36.230Z,3.00
2018-03-22T18:37:03.814Z,3.00
2018-03-22T18:39:31.444Z,3.00
2018-03-22T18:41:59.309Z,2.90
2018-03-22T18:44:26.899Z,2.80
2018-03-22T18:46:54.512Z,2.80
2018-03-22T18:49:22.206Z,2.70
2018-03-22T18:51:49.833Z,2.70
2018-03-22T18:54:17.452Z,2.70
2018-03-22T18:56:45.118Z,2.70
2018-03-22T18:59:12.722Z,2.80
2018-03-22T19:01:40.344Z,2.80
2018-03-22T19:04:07.974Z,2.80
2018-03-22T19:06:35.744Z,2.80
2018-03-22T19:09:03.414Z,2.70
2018-03-22T19:11:31.031Z,2.70
2018-03-22T19:13:58.682Z,2.70
2018-03-22T19:16:26.301Z,2.70
2018-03-22T19:18:53.960Z,2.60
2018-03-22T19:21:21.630Z,2.50
2018-03-22T19:23:49.253Z,2.50
2018-03-22T19:26:16.889Z,2.50
2018-03-22T19:28:44.537Z,2.50
2018-03-22T19:31:12.174Z,2.60
2018-03-22T19:33:39.833Z,2.50
2018-03-22T19:36:07.539Z,2.60
2018-03-22T19:38:35.954Z,2.60
2018-03-22T19:41:03.552Z,2.60
2018-03-22T19:43:31.130Z,2.40
2018-03-22T19:45:58.808Z,2.40
2018-03-22T19:48:27.153Z,2.30
2018-03-22T19:50:54.701Z,2.30
2018-03-22T19:53:22.356Z,2.30
2018-03-22T19:55:49.932Z,2.30
2018-03-22T19:58:17.548Z,2.30
2018-03-22T20:00:45.172Z,2.30
2018-03-22T20:03:13.530Z,2.20
2018-03-22T20:05:41.162Z,2.20
2018-03-22T20:08:08.767Z,2.30
2018-03-22T20:10:36.364Z,2.20
2018-03-22T20:13:04.000Z,2.20
2018-03-22T20:15:31.594Z,2.20
2018-03-22T20:17:59.191Z,2.20
2018-03-22T20:20:26.810Z,2.30
2018-03-22T20:22:54.466Z,2.30
2018-03-22T20:25:22.054Z,2.30
2018-03-22T20:27:49.736Z,2.30
2018-03-22T20:30:17.292Z,2.30
2018-03-22T20:32:44.949Z,2.20
2018-03-22T20:35:12.550Z,2.20
2018-03-22T20:37:40.139Z,2.20
2018-03-22T20:40:07.744Z,2.20
2018-03-22T20:42:35.379Z,2.20
2018-03-22T20:45:02.973Z,2.10
2018-03-22T20:47:30.612Z,2.00
2018-03-22T20:49:58.244Z,1.90
2018-03-22T20:52:25.886Z,1.90
2018-03-22T20:54:53.485Z,1.80
2018-03-22T20:57:21.471Z,1.80
2018-03-22T20:59:49.081Z,1.70
2018-03-22T21:02:16.693Z,1.70
2018-03-22T21:04:44.285Z,1.60
2018-03-22T21:07:11.907Z,1.70
2018-03-22T21:09:39.528Z,1.60
2018-03-22T21:12:07.191Z,1.60
2018-03-22T21:14:34.833Z,1.60
2018-03-22T21:17:02.501Z,1.60
2018-03-22T21:19:30.938Z,1.60
2018-03-22T21:21:58.573Z,1.60
2018-03-22T21:24:26.193Z,1.60
2018-03-22T21:26:53.807Z,1.40
2018-03-22T21:29:21.486Z,1.40
2018-03-22T21:31:49.121Z,1.40
2018-03-22T21:34:16.813Z,1.30
2018-03-22T21:36:44.479Z,1.30
2018-03-22T21:39:12.080Z,1.30
2018-03-22T21:41:52.293Z,1.20
2018-03-22T21:44:19.940Z,1.20
2018-03-22T21:46:47.528Z,1.30
2018-03-22T21:49:15.141Z,1.30
2018-03-22T21:51:48.685Z,1.40
2018-03-22T21:54:16.308Z,1.40
2018-03-22T21:56:43.865Z,1.40
2018-03-22T21:59:12.272Z,1.30
2018-03-22T22:01:39.798Z,1.20
2018-03-22T22:04:08.175Z,1.20
2018-03-22T22:06:35.779Z,1.20
2018-03-22T22:09:03.362Z,1.20
2018-03-22T22:11:30.986Z,1.20
2018-03-22T22:13:58.636Z,1.20
2018-03-22T22:16:26.264Z,1.20
2018-03-22T22:18:54.671Z,1.30
2018-03-22T22:21:22.286Z,1.20
2018-03-22T22:23:49.895Z,1.30
2018-03-22T22:26:17.456Z,1.30
2018-03-22T22:28:45.097Z,1.30
2018-03-22T22:31:13.510Z,1.40
2018-03-22T22:33:41.105Z,1.40
2018-03-22T22:36:08.740Z,1.40
2018-03-22T22:38:36.325Z,1.40
2018-03-22T22:41:03.956Z,1.40
2018-03-22T22:43:31.602Z,1.40
2018-03-22T22:45:59.264Z,1.40
2018-03-22T22:48:26.875Z,1.40
2018-03-22T22:50:54.481Z,1.30
2018-03-22T22:53:22.076Z,1.30
2018-03-22T22:55:49.746Z,1.30
2018-03-22T22:58:17.394Z,1.30
